Portada
METAR-TAF:

METAR-TAF

Aeropuertos :

Sparta, Wisconsin, Estados Unidos

latitud: 43-57-30N, longitud: 090-44-16W, altitud: 255 m

Observación

El informe se hizo hace 11 minutos, a las 01:55 UTC
Viento calma
Temperatura 16°C
Humedad 82%
Presión 1013 hPa
Visibilidad: 16.1 km
Cielo despejado

METAR: KCMY 290155Z AUTO 00000KT 10SM CLR 16/13 A2990 RMK AO2 T01600130

Hora: 21:06 (02:06 UTC)


TAF: falta

Observaciones y pronósticos meteorológicos de más de 4000 aeropuertos (mensajes METAR y TAF).

Los puntos amarillos y rojos representan las estaciones disponibles.

Ponga el ratón en el punto deseado para ver el nombre de la estación.

Haga clic para ver las observaciones y los pronósticos meteorológicos.

Para cambiar el mapa : haga clic en los botones verdes con una cruz de color negro para hacer un zoom, en el botón verde con un guión para alejar o en las flechas verdes para mapas adyacentes.


METAR-TAF: